createdAt,value
2022-09-02T00:01:01.046Z,4.53
2022-09-02T00:03:29.093Z,4.72
2022-09-02T00:05:56.534Z,5.03
2022-09-02T00:08:23.829Z,4.70
2022-09-02T00:10:51.453Z,4.25
2022-09-02T00:13:19.864Z,4.70
2022-09-02T00:15:47.501Z,5.20
2022-09-02T00:18:15.347Z,4.50
2022-09-02T00:20:43.257Z,4.68
2022-09-02T00:23:10.466Z,4.90
2022-09-02T00:25:37.958Z,4.63
2022-09-02T00:28:05.442Z,4.65
2022-09-02T00:30:34.598Z,4.82
2022-09-02T00:33:01.759Z,5.53
2022-09-02T00:35:28.978Z,5.68
2022-09-02T00:37:56.120Z,5.90
2022-09-02T00:40:23.458Z,5.30
2022-09-02T00:42:51.162Z,6.35
2022-09-02T00:45:18.473Z,5.80
2022-09-02T00:47:45.777Z,4.95
2022-09-02T00:50:13.567Z,5.80
2022-09-02T00:52:53.842Z,7.47
2022-09-02T00:55:22.747Z,5.50
2022-09-02T00:57:51.226Z,6.80
2022-09-02T01:00:19.544Z,10.88
2022-09-02T01:02:57.074Z,24.90
2022-09-02T01:05:24.694Z,35.40
2022-09-02T01:07:52.186Z,36.38
2022-09-02T01:10:20.513Z,31.50
2022-09-02T01:12:47.809Z,20.02
2022-09-02T01:15:15.026Z,14.52
2022-09-02T01:17:47.064Z,14.00
2022-09-02T01:20:15.785Z,8.90
2022-09-02T01:22:43.157Z,7.97
2022-09-02T01:25:12.328Z,7.03
2022-09-02T01:27:39.657Z,6.88
2022-09-02T01:30:07.365Z,6.60
2022-09-02T01:32:34.601Z,10.68
2022-09-02T01:35:01.710Z,10.27
2022-09-02T01:37:28.944Z,8.95
2022-09-02T01:39:57.273Z,6.80
2022-09-02T01:42:24.440Z,7.50
2022-09-02T01:44:51.844Z,6.63
2022-09-02T01:47:21.223Z,6.20
2022-09-02T01:49:48.502Z,8.50
2022-09-02T01:52:15.855Z,9.07
2022-09-02T01:54:43.015Z,9.18
2022-09-02T01:57:10.145Z,8.65
2022-09-02T01:59:37.475Z,8.27
2022-09-02T02:02:04.851Z,7.43
2022-09-02T02:04:33.432Z,8.63
2022-09-02T02:07:00.731Z,8.00
2022-09-02T02:09:28.484Z,6.30
2022-09-02T02:11:55.644Z,6.68
2022-09-02T02:14:22.790Z,7.27
2022-09-02T02:16:49.977Z,7.10
2022-09-02T02:19:17.116Z,7.63
2022-09-02T02:21:44.316Z,6.70
2022-09-02T02:24:11.528Z,8.13
2022-09-02T02:26:38.689Z,7.35
2022-09-02T02:29:05.831Z,7.43
2022-09-02T02:31:33.149Z,6.10
2022-09-02T02:34:00.397Z,6.57
2022-09-02T02:36:27.569Z,6.70
2022-09-02T02:38:54.809Z,8.45
2022-09-02T02:41:22.083Z,8.10
2022-09-02T02:43:49.249Z,11.80
2022-09-02T02:46:16.504Z,9.05
2022-09-02T02:48:43.703Z,11.07
2022-09-02T02:51:11.126Z,13.02
2022-09-02T02:53:38.360Z,13.30
2022-09-02T02:56:05.712Z,13.10
2022-09-02T02:58:32.969Z,12.95
2022-09-02T03:01:00.956Z,13.65
2022-09-02T03:03:28.498Z,14.73
2022-09-02T03:05:55.638Z,11.60
2022-09-02T03:08:23.036Z,12.80
2022-09-02T03:10:52.660Z,13.30
2022-09-02T03:13:20.410Z,13.65
2022-09-02T03:15:47.802Z,14.60
2022-09-02T03:18:15.281Z,14.18
2022-09-02T03:20:42.670Z,15.43
2022-09-02T03:23:10.024Z,14.70
2022-09-02T03:25:37.181Z,14.85
2022-09-02T03:28:05.584Z,14.63
2022-09-02T03:30:32.900Z,14.87
2022-09-02T03:33:03.887Z,14.47
2022-09-02T03:35:31.655Z,15.80
2022-09-02T03:37:59.226Z,16.20
2022-09-02T03:40:27.005Z,17.07
2022-09-02T03:42:57.927Z,15.37
2022-09-02T03:45:27.211Z,16.20
2022-09-02T03:47:54.513Z,14.10
2022-09-02T03:50:22.717Z,14.07
2022-09-02T03:52:50.006Z,13.03
2022-09-02T03:55:17.190Z,12.35
2022-09-02T03:57:45.328Z,12.57
2022-09-02T04:00:12.878Z,10.90
2022-09-02T04:02:40.608Z,14.30
2022-09-02T04:05:11.843Z,13.53
2022-09-02T04:07:46.982Z,16.07
2022-09-02T04:10:14.362Z,13.50
2022-09-02T04:12:41.767Z,13.67
2022-09-02T04:15:09.516Z,11.40
2022-09-02T04:17:37.160Z,11.63
2022-09-02T04:20:07.990Z,12.07
2022-09-02T04:22:35.291Z,12.17
2022-09-02T04:25:02.434Z,11.63
2022-09-02T04:27:29.605Z,11.50
2022-09-02T04:29:56.852Z,11.95
2022-09-02T04:32:26.500Z,11.17
2022-09-02T04:34:53.689Z,10.67
2022-09-02T04:37:20.851Z,10.10
2022-09-02T04:39:47.979Z,9.40
2022-09-02T04:42:15.097Z,8.93
2022-09-02T04:44:42.251Z,8.73
2022-09-02T04:47:09.393Z,7.40
2022-09-02T04:49:36.523Z,7.70
2022-09-02T04:52:03.842Z,7.55
2022-09-02T04:54:31.228Z,7.75
2022-09-02T04:56:58.401Z,7.13
2022-09-02T04:59:25.618Z,8.52
2022-09-02T05:01:54.189Z,7.53
2022-09-02T05:04:21.454Z,9.30
2022-09-02T05:06:48.699Z,10.05
2022-09-02T05:09:15.907Z,8.80
2022-09-02T05:11:43.073Z,9.33
2022-09-02T05:14:10.268Z,9.25
2022-09-02T05:16:40.883Z,9.52
2022-09-02T05:19:09.656Z,9.80
2022-09-02T05:21:40.623Z,8.63
2022-09-02T05:24:07.811Z,8.77
2022-09-02T05:26:36.139Z,9.00
2022-09-02T05:29:06.849Z,8.60
2022-09-02T05:31:34.164Z,10.50
2022-09-02T05:34:01.353Z,11.38
2022-09-02T05:36:28.573Z,9.13
2022-09-02T05:38:55.731Z,8.80
2022-09-02T05:41:23.442Z,8.07
2022-09-02T05:43:51.248Z,7.35
2022-09-02T05:46:18.948Z,6.75
2022-09-02T05:49:04.785Z,6.35
2022-09-02T05:51:32.203Z,7.03
2022-09-02T05:53:59.599Z,7.30
2022-09-02T05:56:27.545Z,6.75
2022-09-02T05:58:55.963Z,5.82
2022-09-02T06:01:23.162Z,5.65
2022-09-02T06:03:52.415Z,6.15
2022-09-02T06:06:21.495Z,6.38
2022-09-02T06:08:48.634Z,8.38
2022-09-02T06:11:17.025Z,8.05
2022-09-02T06:13:44.250Z,7.78
2022-09-02T06:16:13.862Z,8.55
2022-09-02T06:18:41.133Z,8.18
2022-09-02T06:21:08.466Z,8.88
2022-09-02T06:23:36.193Z,8.38
2022-09-02T06:26:03.432Z,8.68
2022-09-02T06:28:30.566Z,8.55
2022-09-02T06:30:57.862Z,8.00
2022-09-02T06:33:25.061Z,7.85
2022-09-02T06:35:52.209Z,7.60
2022-09-02T06:38:20.491Z,7.30
2022-09-02T06:40:51.892Z,6.78
2022-09-02T06:43:19.069Z,6.53
2022-09-02T06:45:46.403Z,5.80
2022-09-02T06:48:13.727Z,5.72
2022-09-02T06:50:41.603Z,6.10
2022-09-02T06:53:09.059Z,6.63
2022-09-02T06:55:37.151Z,5.63
2022-09-02T06:58:04.311Z,5.80
2022-09-02T07:00:31.819Z,8.15
2022-09-02T07:03:17.932Z,6.63
2022-09-02T07:05:45.089Z,6.07
2022-09-02T07:08:12.218Z,6.63
2022-09-02T07:10:39.775Z,9.90
2022-09-02T07:13:07.295Z,4.50
2022-09-02T07:15:34.548Z,3.45
2022-09-02T07:18:01.750Z,3.00
2022-09-02T07:20:28.998Z,3.20
2022-09-02T07:22:56.752Z,2.45
2022-09-02T07:25:24.118Z,6.32
2022-09-02T07:27:52.208Z,6.65
2022-09-02T07:30:19.483Z,3.05
2022-09-02T07:32:46.691Z,2.55
2022-09-02T07:35:13.823Z,2.30
2022-09-02T07:37:41.087Z,2.10
2022-09-02T07:40:08.757Z,2.40
2022-09-02T07:42:36.291Z,2.42
2022-09-02T07:45:03.447Z,2.47
2022-09-02T07:47:30.885Z,2.20
2022-09-02T07:50:16.406Z,2.17
2022-09-02T07:52:45.919Z,3.03
2022-09-02T07:55:15.110Z,3.17
2022-09-02T07:57:42.623Z,2.40
2022-09-02T08:00:11.810Z,2.25
2022-09-02T08:02:39.053Z,2.25
2022-09-02T08:05:06.868Z,2.35
2022-09-02T08:07:34.028Z,1.80
2022-09-02T08:10:01.258Z,2.50
2022-09-02T08:12:28.862Z,1.83
2022-09-02T08:14:58.706Z,1.92
2022-09-02T08:17:25.868Z,1.98
2022-09-02T08:19:53.537Z,1.70
2022-09-02T08:22:20.685Z,1.60
2022-09-02T08:24:47.926Z,1.80
2022-09-02T08:27:15.107Z,1.70
2022-09-02T08:29:42.882Z,1.73
2022-09-02T08:32:10.100Z,1.70
2022-09-02T08:34:37.253Z,1.50
2022-09-02T08:37:04.485Z,1.42
2022-09-02T08:39:31.999Z,1.45
2022-09-02T08:44:31.274Z,1.90
2022-09-02T08:46:59.358Z,2.95
2022-09-02T08:49:27.683Z,1.73
2022-09-02T08:52:00.987Z,1.08
2022-09-02T08:54:48.279Z,0.90
2022-09-02T08:57:15.449Z,0.88
2022-09-02T08:59:44.060Z,0.90
2022-09-02T09:02:17.931Z,1.00
2022-09-02T09:05:14.689Z,2.20
2022-09-02T09:07:47.103Z,0.80
2022-09-02T09:10:20.289Z,1.95
2022-09-02T09:13:02.302Z,1.10
2022-09-02T09:15:38.284Z,1.60
2022-09-02T09:18:06.424Z,1.20
2022-09-02T09:20:34.635Z,1.10
2022-09-02T09:23:02.671Z,1.08
2022-09-02T09:25:30.225Z,1.40
2022-09-02T09:27:58.066Z,1.50
2022-09-02T09:30:25.276Z,1.20
2022-09-02T09:33:00.226Z,1.42
2022-09-02T09:35:27.984Z,1.00
2022-09-02T09:37:55.436Z,1.05
2022-09-02T09:40:23.901Z,1.45
2022-09-02T09:43:14.630Z,1.30
2022-09-02T09:45:49.222Z,1.00
2022-09-02T09:48:19.353Z,1.10
2022-09-02T09:50:47.283Z,0.93
2022-09-02T09:53:20.930Z,0.95
2022-09-02T09:55:57.550Z,1.17
2022-09-02T09:58:34.800Z,1.00
2022-09-02T10:01:20.793Z,1.10
2022-09-02T10:03:52.495Z,1.17
2022-09-02T10:06:24.089Z,1.48
2022-09-02T10:08:54.129Z,1.45
2022-09-02T10:11:22.616Z,1.27
2022-09-02T10:13:49.743Z,1.33
2022-09-02T10:16:24.965Z,1.40
2022-09-02T10:18:54.597Z,1.23
2022-09-02T10:21:44.523Z,1.30
2022-09-02T10:24:32.033Z,1.23
2022-09-02T10:26:59.872Z,1.40
2022-09-02T10:29:42.196Z,1.42
2022-09-02T10:32:29.620Z,1.08
2022-09-02T10:35:15.870Z,1.15
2022-09-02T10:38:01.919Z,1.30
2022-09-02T10:40:37.434Z,1.50
2022-09-02T10:43:11.813Z,1.38
2022-09-02T10:45:50.061Z,1.30
2022-09-02T10:48:17.237Z,1.38
2022-09-02T10:50:58.893Z,1.40
2022-09-02T10:53:39.035Z,1.30
2022-09-02T10:56:10.334Z,1.80
2022-09-02T10:58:45.465Z,1.73
2022-09-02T11:01:16.229Z,1.35
2022-09-02T11:04:09.628Z,1.30
2022-09-02T11:06:58.815Z,1.10
2022-09-02T11:11:58.319Z,1.25
2022-09-02T11:14:46.115Z,1.30
2022-09-02T11:17:26.154Z,3.42
2022-09-02T11:19:53.466Z,1.30
2022-09-02T11:22:31.284Z,1.40
2022-09-02T11:25:00.702Z,1.20
2022-09-02T11:27:42.556Z,1.20
2022-09-02T11:30:17.593Z,1.25
2022-09-02T11:33:03.564Z,1.60
2022-09-02T11:35:38.704Z,1.30
2022-09-02T11:38:24.430Z,1.30
2022-09-02T11:43:49.846Z,1.30
2022-09-02T11:46:36.897Z,1.10
2022-09-02T11:49:04.195Z,1.15
2022-09-02T11:51:32.219Z,1.00
2022-09-02T11:53:59.946Z,1.10
2022-09-02T11:56:40.383Z,1.58
2022-09-02T11:59:07.769Z,1.02
2022-09-02T12:01:53.992Z,1.08
2022-09-02T12:07:14.066Z,2.60
2022-09-02T12:09:56.865Z,1.42
2022-09-02T12:12:39.583Z,0.98
2022-09-02T12:15:07.454Z,1.35
2022-09-02T12:17:37.852Z,1.20
2022-09-02T12:20:08.901Z,1.13
2022-09-02T12:22:38.821Z,1.23
2022-09-02T12:25:06.977Z,2.53
2022-09-02T12:27:39.234Z,2.10
2022-09-02T12:30:07.726Z,1.70
2022-09-02T12:32:46.856Z,1.35
2022-09-02T12:35:52.587Z,1.30
2022-09-02T12:38:23.655Z,1.38
2022-09-02T12:40:57.646Z,1.15
2022-09-02T12:43:28.846Z,1.33
2022-09-02T12:45:57.205Z,1.88
2022-09-02T12:48:38.253Z,1.33
2022-09-02T12:51:05.973Z,1.10
2022-09-02T12:53:34.607Z,1.35
2022-09-02T12:56:04.142Z,1.02
2022-09-02T12:58:41.326Z,1.15
2022-09-02T13:01:27.471Z,1.15
2022-09-02T13:04:17.835Z,1.40
2022-09-02T13:06:56.430Z,1.38
2022-09-02T13:09:43.554Z,5.13
2022-09-02T13:12:32.439Z,1.85
2022-09-02T13:15:19.115Z,1.40
2022-09-02T13:17:52.895Z,1.77
2022-09-02T13:20:23.011Z,2.13
2022-09-02T13:23:00.727Z,2.13
2022-09-02T13:25:30.830Z,1.55
2022-09-02T13:28:24.960Z,1.42
2022-09-02T13:31:10.917Z,1.67
2022-09-02T13:33:42.354Z,1.45
2022-09-02T13:36:09.773Z,1.60
2022-09-02T13:38:38.906Z,1.38
2022-09-02T13:41:06.364Z,1.40
2022-09-02T13:43:33.506Z,4.63
2022-09-02T13:46:01.527Z,2.40
2022-09-02T13:48:29.778Z,1.40
2022-09-02T13:50:58.212Z,1.92
2022-09-02T13:53:54.135Z,3.80
2022-09-02T13:56:15.479Z,1.50
2022-09-02T13:58:43.516Z,1.38
2022-09-02T14:01:19.806Z,1.42
2022-09-02T14:03:49.005Z,1.20
2022-09-02T14:06:16.810Z,1.48
2022-09-02T14:08:43.957Z,1.50
2022-09-02T14:11:15.709Z,1.92
2022-09-02T14:13:43.613Z,6.25
2022-09-02T14:16:26.741Z,2.20
2022-09-02T14:19:14.582Z,2.30
2022-09-02T14:21:46.021Z,1.27
2022-09-02T14:24:13.597Z,1.33
2022-09-02T14:26:44.459Z,2.13
2022-09-02T14:29:16.362Z,1.20
2022-09-02T14:31:43.677Z,1.40
2022-09-02T14:34:29.613Z,2.33
2022-09-02T14:36:56.796Z,1.50
2022-09-02T14:39:24.039Z,2.33
2022-09-02T14:41:52.189Z,1.67
2022-09-02T14:44:23.369Z,1.98
2022-09-02T14:46:54.644Z,1.65
2022-09-02T14:49:27.639Z,0.98
2022-09-02T14:51:55.468Z,1.10
2022-09-02T14:54:43.167Z,0.95
2022-09-02T14:57:22.540Z,1.20
2022-09-02T14:59:50.014Z,1.90
2022-09-02T15:02:29.174Z,1.42
2022-09-02T15:04:56.705Z,1.30
2022-09-02T15:07:24.002Z,1.27
2022-09-02T15:09:52.545Z,1.73
2022-09-02T15:12:20.577Z,1.40
2022-09-02T15:14:47.749Z,2.05
2022-09-02T15:17:15.815Z,2.72
2022-09-02T15:19:42.979Z,2.50
2022-09-02T15:22:10.114Z,2.03
2022-09-02T15:24:38.917Z,1.70
2022-09-02T15:27:06.104Z,1.67
2022-09-02T15:29:33.307Z,1.60
2022-09-02T15:32:00.625Z,1.90
2022-09-02T15:34:27.814Z,1.52
2022-09-02T15:36:55.554Z,1.40
2022-09-02T15:39:23.068Z,1.60
2022-09-02T15:41:50.429Z,1.38
2022-09-02T15:44:18.267Z,1.85
2022-09-02T15:46:45.704Z,1.50
2022-09-02T15:49:13.646Z,1.90
2022-09-02T15:51:40.821Z,1.23
2022-09-02T15:54:09.132Z,1.55
2022-09-02T15:56:36.989Z,1.70
2022-09-02T15:59:11.293Z,1.95
2022-09-02T16:01:40.001Z,1.77
2022-09-02T16:04:07.489Z,1.63
2022-09-02T16:06:36.052Z,2.25
2022-09-02T16:09:03.369Z,1.83
2022-09-02T16:11:30.514Z,1.90
2022-09-02T16:13:57.672Z,2.00
2022-09-02T16:16:24.958Z,2.10
2022-09-02T16:18:52.791Z,1.92
2022-09-02T16:21:20.391Z,1.75
2022-09-02T16:23:49.531Z,2.00
2022-09-02T16:26:21.941Z,1.90
2022-09-02T16:28:49.197Z,1.70
2022-09-02T16:31:20.395Z,1.63
2022-09-02T16:33:54.870Z,2.20
2022-09-02T16:36:22.298Z,2.30
2022-09-02T16:38:49.431Z,5.30
2022-09-02T16:41:26.010Z,4.40
2022-09-02T16:43:53.135Z,3.78
2022-09-02T16:46:20.371Z,2.70
2022-09-02T16:48:47.555Z,2.60
2022-09-02T16:51:14.678Z,5.50
2022-09-02T16:53:41.874Z,4.85
2022-09-02T16:56:12.275Z,2.78
2022-09-02T16:58:39.394Z,2.13
2022-09-02T17:01:06.936Z,2.67
2022-09-02T17:03:34.326Z,2.78
2022-09-02T17:06:01.474Z,2.78
2022-09-02T17:08:29.538Z,2.50
2022-09-02T17:11:12.112Z,2.40
2022-09-02T17:13:40.409Z,2.63
2022-09-02T17:16:07.926Z,3.65
2022-09-02T17:18:35.400Z,15.68
2022-09-02T17:21:17.755Z,33.03
2022-09-02T17:23:44.963Z,31.05
2022-09-02T17:26:12.143Z,42.92
2022-09-02T17:28:46.614Z,48.03
2022-09-02T17:31:20.862Z,23.90
2022-09-02T17:33:48.330Z,28.00
2022-09-02T17:36:15.551Z,39.35
2022-09-02T17:38:43.861Z,33.25
2022-09-02T17:41:29.841Z,39.38
2022-09-02T17:43:57.472Z,41.22
2022-09-02T17:46:24.759Z,25.30
2022-09-02T17:49:15.292Z,27.80
2022-09-02T17:51:48.316Z,28.60
2022-09-02T17:54:15.647Z,17.88
2022-09-02T17:56:47.779Z,20.38
2022-09-02T17:59:17.948Z,19.73
2022-09-02T18:02:05.331Z,19.58
2022-09-02T18:04:35.202Z,21.95
2022-09-02T18:07:07.738Z,21.65
2022-09-02T18:09:35.218Z,17.85
2022-09-02T18:12:02.565Z,19.20
2022-09-02T18:14:59.148Z,21.52
2022-09-02T18:17:28.066Z,21.65
2022-09-02T18:20:09.465Z,18.55
2022-09-02T18:22:45.793Z,20.20
2022-09-02T18:25:23.978Z,18.23
2022-09-02T18:27:54.849Z,18.63
2022-09-02T18:30:27.353Z,18.38
2022-09-02T18:33:09.727Z,15.00
2022-09-02T18:35:43.432Z,15.88
2022-09-02T18:38:10.638Z,12.43
2022-09-02T18:40:47.477Z,11.50
2022-09-02T18:43:19.651Z,11.70
2022-09-02T18:45:54.743Z,11.60
2022-09-02T18:48:23.310Z,10.75
2022-09-02T18:50:55.212Z,10.95
2022-09-02T18:53:23.398Z,12.30
2022-09-02T18:55:50.560Z,9.27
2022-09-02T18:58:23.645Z,9.20
2022-09-02T19:00:53.463Z,9.35
2022-09-02T19:03:20.654Z,9.02
2022-09-02T19:05:47.798Z,9.07
2022-09-02T19:08:35.187Z,9.82
2022-09-02T19:11:03.317Z,10.27
2022-09-02T19:13:30.939Z,9.27
2022-09-02T19:16:02.665Z,8.75
2022-09-02T19:18:32.127Z,8.27
2022-09-02T19:20:59.265Z,9.18
2022-09-02T19:23:26.795Z,11.85
2022-09-02T19:25:53.962Z,9.60
2022-09-02T19:28:22.571Z,9.90
2022-09-02T19:30:50.539Z,7.75
2022-09-02T19:33:17.731Z,8.60
2022-09-02T19:35:46.503Z,7.72
2022-09-02T19:38:18.187Z,7.60
2022-09-02T19:40:47.054Z,7.78
2022-09-02T19:43:16.031Z,7.47
2022-09-02T19:45:43.315Z,6.97
2022-09-02T19:48:13.453Z,7.07
2022-09-02T19:50:42.091Z,7.45
2022-09-02T19:53:16.058Z,7.78
2022-09-02T19:55:43.245Z,7.55
2022-09-02T19:58:10.421Z,7.10
2022-09-02T20:00:37.667Z,7.03
2022-09-02T20:03:04.861Z,8.40
2022-09-02T20:05:32.348Z,8.88
2022-09-02T20:07:59.503Z,8.57
2022-09-02T20:10:28.209Z,8.70
2022-09-02T20:12:57.169Z,8.43
2022-09-02T20:15:24.373Z,8.80
2022-09-02T20:17:51.570Z,8.40
2022-09-02T20:20:20.250Z,8.75
2022-09-02T20:22:48.026Z,9.00
2022-09-02T20:25:15.416Z,9.15
2022-09-02T20:27:42.898Z,10.60
2022-09-02T20:30:11.224Z,9.80
2022-09-02T20:32:50.505Z,9.05
2022-09-02T20:35:36.378Z,9.05
2022-09-02T20:38:15.747Z,9.10
2022-09-02T20:40:46.342Z,9.02
2022-09-02T20:43:14.753Z,9.02
2022-09-02T20:45:44.946Z,9.30
2022-09-02T20:48:28.018Z,9.18
2022-09-02T20:51:14.327Z,10.18
2022-09-02T20:54:21.271Z,28.88
2022-09-02T20:57:07.535Z,39.65
2022-09-02T20:59:38.461Z,35.75
2022-09-02T21:02:05.749Z,36.45
2022-09-02T21:04:32.891Z,20.80
2022-09-02T21:07:09.313Z,20.83
2022-09-02T21:09:40.706Z,17.60
2022-09-02T21:12:11.259Z,20.85
2022-09-02T21:14:44.620Z,20.42
2022-09-02T21:17:13.594Z,16.75
2022-09-02T21:19:42.698Z,16.63
2022-09-02T21:22:28.878Z,15.05
2022-09-02T21:25:17.365Z,15.10
2022-09-02T21:27:49.974Z,13.00
2022-09-02T21:30:19.369Z,12.98
2022-09-02T21:32:54.684Z,11.48
2022-09-02T21:35:21.929Z,10.55
2022-09-02T21:37:49.621Z,11.13
2022-09-02T21:40:17.707Z,10.95
2022-09-02T21:42:53.767Z,9.88
2022-09-02T21:45:24.006Z,9.00
2022-09-02T21:47:51.411Z,8.95
2022-09-02T21:50:38.876Z,9.30
2022-09-02T21:53:24.695Z,9.75
2022-09-02T21:55:53.444Z,9.75
2022-09-02T21:58:26.360Z,9.32
2022-09-02T22:00:55.667Z,8.50
2022-09-02T22:03:24.682Z,8.15
2022-09-02T22:05:59.219Z,8.30
2022-09-02T22:08:44.669Z,8.32
2022-09-02T22:11:26.659Z,7.65
2022-09-02T22:13:54.873Z,7.32
2022-09-02T22:16:46.546Z,7.50
2022-09-02T22:19:13.670Z,6.15
2022-09-02T22:21:48.094Z,6.65
2022-09-02T22:24:15.782Z,7.05
2022-09-02T22:26:53.304Z,7.15
2022-09-02T22:29:21.869Z,12.10
2022-09-02T22:31:50.996Z,9.13
2022-09-02T22:34:23.694Z,8.73
2022-09-02T22:37:07.838Z,8.57
2022-09-02T22:39:39.472Z,6.72
2022-09-02T22:42:26.938Z,6.63
2022-09-02T22:45:31.019Z,5.60
2022-09-02T22:48:21.084Z,5.50
2022-09-02T22:51:08.178Z,5.68
2022-09-02T22:53:35.308Z,5.78
2022-09-02T22:56:03.134Z,6.32
2022-09-02T22:58:47.687Z,6.10
2022-09-02T23:01:32.533Z,5.82
2022-09-02T23:04:19.989Z,6.15
2022-09-02T23:06:47.158Z,5.85
2022-09-02T23:09:15.761Z,5.85
2022-09-02T23:11:52.130Z,6.07
2022-09-02T23:14:26.602Z,5.30
2022-09-02T23:17:15.604Z,5.32
2022-09-02T23:19:58.946Z,5.15
2022-09-02T23:22:42.053Z,5.10
2022-09-02T23:25:14.074Z,5.25
2022-09-02T23:27:44.303Z,4.93
2022-09-02T23:30:14.580Z,5.13
2022-09-02T23:33:03.331Z,4.75
2022-09-02T23:35:37.302Z,4.80
2022-09-02T23:38:23.526Z,8.75
2022-09-02T23:40:52.503Z,6.35
2022-09-02T23:43:19.887Z,6.53
2022-09-02T23:45:47.311Z,7.10
2022-09-02T23:48:20.350Z,7.80
2022-09-02T23:51:05.434Z,6.72
2022-09-02T23:53:48.707Z,5.35
2022-09-02T23:56:20.782Z,5.85
2022-09-02T23:59:08.980Z,5.40
